sensor_id;sensor_type;location;lat;lon;timestamp;pressure;altitude;pressure_sealevel;temperature;humidity
74578;BME280;63173;49.086;33.418;2023-01-26T00:02:08;101920.19;;;-1.72;86.34
74578;BME280;63173;49.086;33.418;2023-01-26T00:04:33;101917.22;;;-1.77;86.50
74578;BME280;63173;49.086;33.418;2023-01-26T00:06:59;101918.69;;;-1.66;85.75
74578;BME280;63173;49.086;33.418;2023-01-26T00:09:24;101917.03;;;-1.75;85.55
74578;BME280;63173;49.086;33.418;2023-01-26T00:11:50;101907.03;;;-1.73;86.08
74578;BME280;63173;49.086;33.418;2023-01-26T00:14:15;101915.03;;;-1.73;86.14
74578;BME280;63173;49.086;33.418;2023-01-26T00:16:40;101909.72;;;-1.81;86.86
74578;BME280;63173;49.086;33.418;2023-01-26T00:19:06;101910.22;;;-1.78;86.86
74578;BME280;63173;49.086;33.418;2023-01-26T00:21:31;101903.56;;;-1.82;87.35
74578;BME280;63173;49.086;33.418;2023-01-26T00:23:57;101906.56;;;-1.77;86.63
74578;BME280;63173;49.086;33.418;2023-01-26T00:26:25;101899.06;;;-1.73;86.32
74578;BME280;63173;49.086;33.418;2023-01-26T00:28:52;101907.22;;;-1.83;86.12
74578;BME280;63173;49.086;33.418;2023-01-26T00:31:25;101909.22;;;-1.85;87.33
74578;BME280;63173;49.086;33.418;2023-01-26T00:33:53;101898.56;;;-1.69;86.41
74578;BME280;63173;49.086;33.418;2023-01-26T00:36:18;101902.38;;;-1.71;86.43
74578;BME280;63173;49.086;33.418;2023-01-26T00:38:44;101901.22;;;-1.69;85.78
74578;BME280;63173;49.086;33.418;2023-01-26T00:41:10;101892.53;;;-1.55;87.09
74578;BME280;63173;49.086;33.418;2023-01-26T00:43:59;101893.72;;;-1.65;86.49
74578;BME280;63173;49.086;33.418;2023-01-26T00:46:25;101900.03;;;-1.58;85.57
74578;BME280;63173;49.086;33.418;2023-01-26T00:48:50;101901.72;;;-1.73;86.72
74578;BME280;63173;49.086;33.418;2023-01-26T00:51:16;101899.53;;;-1.62;86.74
74578;BME280;63173;49.086;33.418;2023-01-26T00:53:41;101899.19;;;-1.59;86.45
74578;BME280;63173;49.086;33.418;2023-01-26T00:56:07;101906.38;;;-1.59;87.00
74578;BME280;63173;49.086;33.418;2023-01-26T00:58:32;101901.72;;;-1.57;85.13
74578;BME280;63173;49.086;33.418;2023-01-26T01:00:58;101899.72;;;-1.63;85.95
74578;BME280;63173;49.086;33.418;2023-01-26T01:03:23;101888.53;;;-1.59;86.73
74578;BME280;63173;49.086;33.418;2023-01-26T01:05:49;101896.56;;;-1.75;86.26
74578;BME280;63173;49.086;33.418;2023-01-26T01:08:14;101900.03;;;-1.58;86.87
74578;BME280;63173;49.086;33.418;2023-01-26T01:10:39;101890.22;;;-1.58;86.23
74578;BME280;63173;49.086;33.418;2023-01-26T01:13:05;101898.03;;;-1.64;86.37
74578;BME280;63173;49.086;33.418;2023-01-26T01:15:30;101897.53;;;-1.60;86.28
74578;BME280;63173;49.086;33.418;2023-01-26T01:17:56;101901.53;;;-1.64;86.91
74578;BME280;63173;49.086;33.418;2023-01-26T01:20:21;101893.56;;;-1.64;86.71
74578;BME280;63173;49.086;33.418;2023-01-26T01:22:46;101893.56;;;-1.64;86.47
74578;BME280;63173;49.086;33.418;2023-01-26T01:25:12;101899.22;;;-1.75;85.47
74578;BME280;63173;49.086;33.418;2023-01-26T01:27:37;101888.72;;;-1.68;86.48
74578;BME280;63173;49.086;33.418;2023-01-26T01:30:04;101899.22;;;-1.75;86.38
74578;BME280;63173;49.086;33.418;2023-01-26T01:32:33;101892.09;;;-1.74;85.15
74578;BME280;63173;49.086;33.418;2023-01-26T01:34:59;101897.91;;;-1.79;85.10
74578;BME280;63173;49.086;33.418;2023-01-26T01:37:24;101884.09;;;-1.91;86.19
74578;BME280;63173;49.086;33.418;2023-01-26T01:39:50;101878.63;;;-1.97;85.75
74578;BME280;63173;49.086;33.418;2023-01-26T01:42:15;101885.91;;;-1.91;86.51
74578;BME280;63173;49.086;33.418;2023-01-26T01:44:42;101884.59;;;-1.79;85.13
74578;BME280;63173;49.086;33.418;2023-01-26T01:47:17;101888.94;;;-1.78;85.50
74578;BME280;63173;49.086;33.418;2023-01-26T01:49:49;101885.91;;;-1.83;85.38
74578;BME280;63173;49.086;33.418;2023-01-26T01:54:53;101885.59;;;-1.80;86.08
74578;BME280;63173;49.086;33.418;2023-01-26T01:57:28;101882.09;;;-1.97;85.41
74578;BME280;63173;49.086;33.418;2023-01-26T02:00:07;101881.09;;;-1.87;86.07
74578;BME280;63173;49.086;33.418;2023-01-26T02:02:34;101872.59;;;-1.91;85.88
74578;BME280;63173;49.086;33.418;2023-01-26T02:05:07;101884.75;;;-1.97;86.32
74578;BME280;63173;49.086;33.418;2023-01-26T02:07:35;101878.75;;;-1.91;85.92
74578;BME280;63173;49.086;33.418;2023-01-26T02:10:02;101871.97;;;-1.93;86.96
74578;BME280;63173;49.086;33.418;2023-01-26T02:12:51;101878.63;;;-1.97;86.51
74578;BME280;63173;49.086;33.418;2023-01-26T02:15:17;101875.13;;;-1.89;86.10
74578;BME280;63173;49.086;33.418;2023-01-26T02:17:43;101873.25;;;-1.89;85.85
74578;BME280;63173;49.086;33.418;2023-01-26T02:25:35;101867.78;;;-1.87;87.00
74578;BME280;63173;49.086;33.418;2023-01-26T02:28:04;101872.78;;;-1.84;86.16
74578;BME280;63173;49.086;33.418;2023-01-26T02:30:30;101867.63;;;-1.94;85.97
74578;BME280;63173;49.086;33.418;2023-01-26T02:32:56;101868.94;;;-1.98;86.01
74578;BME280;63173;49.086;33.418;2023-01-26T02:35:22;101864.78;;;-2.17;87.21
74578;BME280;63173;49.086;33.418;2023-01-26T02:37:47;101866.78;;;-2.11;87.30
74578;BME280;63173;49.086;33.418;2023-01-26T02:40:30;101863.97;;;-2.09;86.52
74578;BME280;63173;49.086;33.418;2023-01-26T02:42:56;101862.31;;;-2.10;86.22
74578;BME280;63173;49.086;33.418;2023-01-26T02:45:22;101855.97;;;-2.09;86.45
74578;BME280;63173;49.086;33.418;2023-01-26T02:47:48;101856.28;;;-1.96;86.48
74578;BME280;63173;49.086;33.418;2023-01-26T02:50:13;101861.31;;;-2.09;87.01
74578;BME280;63173;49.086;33.418;2023-01-26T02:52:39;101853.13;;;-2.16;86.53
74578;BME280;63173;49.086;33.418;2023-01-26T02:55:05;101855.00;;;-2.16;87.51
74578;BME280;63173;49.086;33.418;2023-01-26T02:58:01;101847.47;;;-2.29;87.09
74578;BME280;63173;49.086;33.418;2023-01-26T03:00:33;101842.84;;;-2.19;87.07
74578;BME280;63173;49.086;33.418;2023-01-26T03:03:07;101835.50;;;-2.17;87.46
74578;BME280;63173;49.086;33.418;2023-01-26T03:05:35;101833.69;;;-2.16;86.59
74578;BME280;63173;49.086;33.418;2023-01-26T03:08:00;101837.16;;;-2.16;86.88
74578;BME280;63173;49.086;33.418;2023-01-26T03:10:25;101832.50;;;-2.14;87.70
74578;BME280;63173;49.086;33.418;2023-01-26T03:12:51;101831.00;;;-2.08;86.77
74578;BME280;63173;49.086;33.418;2023-01-26T03:15:17;101833.03;;;-2.18;86.75
74578;BME280;63173;49.086;33.418;2023-01-26T03:18:06;101829.69;;;-2.12;87.36
74578;BME280;63173;49.086;33.418;2023-01-26T03:20:50;101824.69;;;-2.23;87.75
74578;BME280;63173;49.086;33.418;2023-01-26T03:23:34;101819.72;;;-2.18;87.80
74578;BME280;63173;49.086;33.418;2023-01-26T03:26:18;101828.69;;;-2.11;87.20
74578;BME280;63173;49.086;33.418;2023-01-26T03:29:02;101827.19;;;-2.06;86.85
74578;BME280;63173;49.086;33.418;2023-01-26T03:31:27;101828.00;;;-2.21;86.76
74578;BME280;63173;49.086;33.418;2023-01-26T03:33:52;101821.88;;;-2.22;87.65
74578;BME280;63173;49.086;33.418;2023-01-26T03:36:18;101822.03;;;-2.23;87.94
74578;BME280;63173;49.086;33.418;2023-01-26T03:38:43;101827.22;;;-2.22;87.16
74578;BME280;63173;49.086;33.418;2023-01-26T03:41:09;101825.34;;;-2.45;88.02
74578;BME280;63173;49.086;33.418;2023-01-26T03:43:52;101826.84;;;-2.51;88.15
74578;BME280;63173;49.086;33.418;2023-01-26T03:46:36;101823.19;;;-2.42;88.54
74578;BME280;63173;49.086;33.418;2023-01-26T03:49:20;101833.84;;;-2.34;87.89
74578;BME280;63173;49.086;33.418;2023-01-26T03:52:04;101830.69;;;-2.37;87.32
74578;BME280;63173;49.086;33.418;2023-01-26T03:54:48;101833.50;;;-2.47;87.42
74578;BME280;63173;49.086;33.418;2023-01-26T03:57:32;101830.00;;;-2.47;88.14
74578;BME280;63173;49.086;33.418;2023-01-26T03:59:57;101828.88;;;-2.37;87.79
74578;BME280;63173;49.086;33.418;2023-01-26T04:02:23;101830.19;;;-2.33;87.52
74578;BME280;63173;49.086;33.418;2023-01-26T04:05:07;101835.34;;;-2.39;88.18
74578;BME280;63173;49.086;33.418;2023-01-26T04:07:51;101837.19;;;-2.32;87.28
74578;BME280;63173;49.086;33.418;2023-01-26T04:10:35;101831.66;;;-2.54;88.08
74578;BME280;63173;49.086;33.418;2023-01-26T04:13:00;101830.66;;;-2.53;88.93
74578;BME280;63173;49.086;33.418;2023-01-26T04:15:46;101831.66;;;-2.38;88.85
74578;BME280;63173;49.086;33.418;2023-01-26T04:18:30;101834.03;;;-2.27;87.95
74578;BME280;63173;49.086;33.418;2023-01-26T04:21:14;101835.00;;;-2.28;87.71
74578;BME280;63173;49.086;33.418;2023-01-26T04:23:53;101838.19;;;-2.17;87.55
74578;BME280;63173;49.086;33.418;2023-01-26T04:26:21;101835.19;;;-2.30;87.52
74578;BME280;63173;49.086;33.418;2023-01-26T04:28:46;101843.00;;;-2.44;87.30
74578;BME280;63173;49.086;33.418;2023-01-26T04:31:12;101833.69;;;-2.48;86.84
74578;BME280;63173;49.086;33.418;2023-01-26T04:33:37;101831.00;;;-2.56;87.40
74578;BME280;63173;49.086;33.418;2023-01-26T04:36:04;101827.69;;;-2.42;87.00
74578;BME280;63173;49.086;33.418;2023-01-26T04:38:30;101822.53;;;-2.36;87.70
74578;BME280;63173;49.086;33.418;2023-01-26T04:40:55;101823.38;;;-2.35;86.98
74578;BME280;63173;49.086;33.418;2023-01-26T04:43:21;101826.34;;;-2.54;88.11
74578;BME280;63173;49.086;33.418;2023-01-26T04:46:00;101832.00;;;-2.49;87.87
74578;BME280;63173;49.086;33.418;2023-01-26T04:48:27;101822.34;;;-2.74;88.13
74578;BME280;63173;49.086;33.418;2023-01-26T04:50:58;101828.00;;;-2.53;88.50
74578;BME280;63173;49.086;33.418;2023-01-26T04:53:23;101821.69;;;-2.52;88.54
74578;BME280;63173;49.086;33.418;2023-01-26T04:55:49;101831.34;;;-2.51;88.01
74578;BME280;63173;49.086;33.418;2023-01-26T04:58:15;101829.50;;;-2.67;88.43
74578;BME280;63173;49.086;33.418;2023-01-26T05:00:40;101829.66;;;-2.60;88.44
74578;BME280;63173;49.086;33.418;2023-01-26T05:03:06;101829.84;;;-2.62;88.64
74578;BME280;63173;49.086;33.418;2023-01-26T05:05:38;101833.31;;;-2.53;88.07
74578;BME280;63173;49.086;33.418;2023-01-26T05:08:04;101835.81;;;-2.60;88.00
74578;BME280;63173;49.086;33.418;2023-01-26T05:10:30;101836.13;;;-2.63;88.41
74578;BME280;63173;49.086;33.418;2023-01-26T05:12:56;101836.81;;;-2.53;88.75
74578;BME280;63173;49.086;33.418;2023-01-26T05:15:22;101845.31;;;-2.49;88.52
74578;BME280;63173;49.086;33.418;2023-01-26T05:17:47;101841.66;;;-2.48;87.96
74578;BME280;63173;49.086;33.418;2023-01-26T05:20:12;101847.66;;;-2.46;87.32
74578;BME280;63173;49.086;33.418;2023-01-26T12:52:49;101713.28;;;-1.79;84.48
74578;BME280;63173;49.086;33.418;2023-01-26T12:55:29;101714.78;;;-1.77;84.58
74578;BME280;63173;49.086;33.418;2023-01-26T12:58:04;101711.63;;;-1.72;85.21
74578;BME280;63173;49.086;33.418;2023-01-26T13:00:34;101708.41;;;-1.68;84.69
74578;BME280;63173;49.086;33.418;2023-01-26T13:03:05;101705.44;;;-1.73;83.70
74578;BME280;63173;49.086;33.418;2023-01-26T13:05:54;101697.16;;;-1.78;84.65
74578;BME280;63173;49.086;33.418;2023-01-26T13:10:55;101686.38;;;-1.54;83.08
74578;BME280;63173;49.086;33.418;2023-01-26T13:13:31;101700.41;;;-1.60;83.66
74578;BME280;63173;49.086;33.418;2023-01-26T13:18:55;101690.19;;;-1.87;85.40
74578;BME280;63173;49.086;33.418;2023-01-26T13:26:51;101693.59;;;-2.17;85.40
74578;BME280;63173;49.086;33.418;2023-01-26T13:31:52;101689.78;;;-2.23;86.16
74578;BME280;63173;49.086;33.418;2023-01-26T13:34:36;101683.09;;;-2.03;85.88
74578;BME280;63173;49.086;33.418;2023-01-26T13:37:12;101693.94;;;-2.12;86.55
74578;BME280;63173;49.086;33.418;2023-01-26T13:39:41;101691.50;;;-2.38;87.08
74578;BME280;63173;49.086;33.418;2023-01-26T13:42:19;101691.97;;;-2.26;86.83
74578;BME280;63173;49.086;33.418;2023-01-26T13:44:55;101689.34;;;-2.50;87.51
74578;BME280;63173;49.086;33.418;2023-01-26T13:47:28;101682.84;;;-2.40;87.64
74578;BME280;63173;49.086;33.418;2023-01-26T13:49:56;101672.19;;;-2.32;88.06
74578;BME280;63173;49.086;33.418;2023-01-26T13:52:24;101679.69;;;-2.35;87.64
74578;BME280;63173;49.086;33.418;2023-01-26T13:54:52;101665.84;;;-2.31;86.45
74578;BME280;63173;49.086;33.418;2023-01-26T13:57:22;101668.38;;;-2.29;86.50
74578;BME280;63173;49.086;33.418;2023-01-26T13:59:49;101668.75;;;-2.48;87.79
74578;BME280;63173;49.086;33.418;2023-01-26T14:02:23;101658.69;;;-2.22;86.51
74578;BME280;63173;49.086;33.418;2023-01-26T14:04:54;101660.00;;;-2.18;86.33
74578;BME280;63173;49.086;33.418;2023-01-26T14:07:41;101660.34;;;-2.21;86.28
74578;BME280;63173;49.086;33.418;2023-01-26T14:10:15;101653.88;;;-2.27;86.76
74578;BME280;63173;49.086;33.418;2023-01-26T14:12:45;101649.75;;;-2.29;86.34
74578;BME280;63173;49.086;33.418;2023-01-26T14:15:25;101647.56;;;-2.34;87.11
74578;BME280;63173;49.086;33.418;2023-01-26T14:17:55;101635.13;;;-2.41;87.54
74578;BME280;63173;49.086;33.418;2023-01-26T14:20:33;101634.59;;;-2.29;87.45
74578;BME280;63173;49.086;33.418;2023-01-26T14:23:15;101635.13;;;-2.33;86.75
74578;BME280;63173;49.086;33.418;2023-01-26T14:26:04;101633.03;;;-2.15;87.42
74578;BME280;63173;49.086;33.418;2023-01-26T14:28:34;101634.72;;;-2.14;86.72
74578;BME280;63173;49.086;33.418;2023-01-26T14:31:03;101641.47;;;-2.42;87.05
74578;BME280;63173;49.086;33.418;2023-01-26T14:33:30;101634.94;;;-2.32;86.48
74578;BME280;63173;49.086;33.418;2023-01-26T14:35:58;101633.25;;;-2.25;86.58
74578;BME280;63173;49.086;33.418;2023-01-26T14:38:26;101621.25;;;-2.21;87.33
74578;BME280;63173;49.086;33.418;2023-01-26T14:40:55;101625.53;;;-2.12;86.01
74578;BME280;63173;49.086;33.418;2023-01-26T14:43:21;101620.78;;;-2.32;86.54
74578;BME280;63173;49.086;33.418;2023-01-26T14:48:38;101615.81;;;-2.35;88.00
74578;BME280;63173;49.086;33.418;2023-01-26T14:51:16;101602.00;;;-2.31;87.15
74578;BME280;63173;49.086;33.418;2023-01-26T14:53:48;101612.09;;;-2.10;86.99
74578;BME280;63173;49.086;33.418;2023-01-26T14:56:17;101611.47;;;-2.28;87.58
74578;BME280;63173;49.086;33.418;2023-01-26T14:58:43;101608.22;;;-2.54;88.75
74578;BME280;63173;49.086;33.418;2023-01-26T15:01:19;101605.06;;;-2.50;88.63
74578;BME280;63173;49.086;33.418;2023-01-26T15:03:47;101615.06;;;-2.60;89.00
74578;BME280;63173;49.086;33.418;2023-01-26T15:06:19;101622.06;;;-2.67;88.94
74578;BME280;63173;49.086;33.418;2023-01-26T15:08:58;101624.72;;;-2.67;89.19
74578;BME280;63173;49.086;33.418;2023-01-26T15:11:35;101629.19;;;-2.67;89.59
74578;BME280;63173;49.086;33.418;2023-01-26T15:17:03;101623.03;;;-2.60;89.69
74578;BME280;63173;49.086;33.418;2023-01-26T15:19:38;101638.50;;;-2.71;90.04
74578;BME280;63173;49.086;33.418;2023-01-26T15:22:12;101636.19;;;-2.74;90.13
74578;BME280;63173;49.086;33.418;2023-01-26T15:24:39;101629.03;;;-2.58;89.42
74578;BME280;63173;49.086;33.418;2023-01-26T15:27:05;101633.81;;;-2.45;89.11
74578;BME280;63173;49.086;33.418;2023-01-26T15:29:32;101633.00;;;-2.62;90.03
74578;BME280;63173;49.086;33.418;2023-01-26T15:31:58;101636.00;;;-2.65;89.83
74578;BME280;63173;49.086;33.418;2023-01-26T15:34:32;101635.00;;;-2.64;90.20
74578;BME280;63173;49.086;33.418;2023-01-26T15:36:59;101631.50;;;-2.56;90.25
74578;BME280;63173;49.086;33.418;2023-01-26T15:39:25;101630.47;;;-2.47;89.73
74578;BME280;63173;49.086;33.418;2023-01-26T15:44:35;101636.81;;;-2.56;88.76
74578;BME280;63173;49.086;33.418;2023-01-26T15:47:00;101629.81;;;-2.49;89.18
74578;BME280;63173;49.086;33.418;2023-01-26T15:49:25;101640.84;;;-2.76;89.80
74578;BME280;63173;49.086;33.418;2023-01-26T15:51:51;101638.34;;;-2.70;90.27
74578;BME280;63173;49.086;33.418;2023-01-26T15:54:16;101636.50;;;-2.61;89.86
74578;BME280;63173;49.086;33.418;2023-01-26T15:56:42;101639.19;;;-2.69;90.35
74578;BME280;63173;49.086;33.418;2023-01-26T15:59:07;101649.81;;;-2.77;90.84
74578;BME280;63173;49.086;33.418;2023-01-26T16:01:33;101646.16;;;-2.84;90.81
74578;BME280;63173;49.086;33.418;2023-01-26T16:03:58;101643.34;;;-2.83;90.65
74578;BME280;63173;49.086;33.418;2023-01-26T16:06:26;101645.81;;;-2.81;91.04
74578;BME280;63173;49.086;33.418;2023-01-26T18:09:02;101632.88;;;-3.09;93.77
74578;BME280;63173;49.086;33.418;2023-01-26T18:11:27;101629.69;;;-3.12;93.83
74578;BME280;63173;49.086;33.418;2023-01-26T18:13:53;101629.41;;;-3.09;93.82
74578;BME280;63173;49.086;33.418;2023-01-26T18:16:20;101634.38;;;-3.06;94.10
74578;BME280;63173;49.086;33.418;2023-01-26T18:18:46;101643.00;;;-2.96;93.91
74578;BME280;63173;49.086;33.418;2023-01-26T18:21:23;101640.03;;;-3.01;93.67
74578;BME280;63173;49.086;33.418;2023-01-26T18:23:52;101641.34;;;-2.97;94.01
74578;BME280;63173;49.086;33.418;2023-01-26T18:26:20;101636.19;;;-2.99;94.18
74578;BME280;63173;49.086;33.418;2023-01-26T18:28:46;101632.72;;;-3.07;94.10
74578;BME280;63173;49.086;33.418;2023-01-26T18:31:33;101638.03;;;-3.15;94.08
74578;BME280;63173;49.086;33.418;2023-01-26T18:34:00;101629.38;;;-3.25;94.39
74578;BME280;63173;49.086;33.418;2023-01-26T18:36:27;101636.03;;;-3.05;94.58
74578;BME280;63173;49.086;33.418;2023-01-26T18:38:55;101629.72;;;-3.04;94.23
74578;BME280;63173;49.086;33.418;2023-01-26T18:41:21;101641.84;;;-3.02;94.31
74578;BME280;63173;49.086;33.418;2023-01-26T18:43:52;101621.41;;;-3.17;94.31
74578;BME280;63173;49.086;33.418;2023-01-26T18:46:19;101627.22;;;-3.14;94.69
74578;BME280;63173;49.086;33.418;2023-01-26T18:48:44;101625.06;;;-3.10;94.52
74578;BME280;63173;49.086;33.418;2023-01-26T18:51:10;101623.22;;;-3.34;95.30
74578;BME280;63173;49.086;33.418;2023-01-26T18:53:36;101621.94;;;-3.22;94.68
74578;BME280;63173;49.086;33.418;2023-01-26T18:56:11;101613.13;;;-3.22;95.03
74578;BME280;63173;49.086;33.418;2023-01-26T18:58:38;101613.09;;;-3.30;95.40
74578;BME280;63173;49.086;33.418;2023-01-26T19:01:05;101620.06;;;-3.21;95.33
74578;BME280;63173;49.086;33.418;2023-01-26T19:03:37;101615.25;;;-3.18;95.31
74578;BME280;63173;49.086;33.418;2023-01-26T19:06:06;101616.78;;;-3.07;95.36
74578;BME280;63173;49.086;33.418;2023-01-26T19:08:32;101619.25;;;-2.98;95.25
74578;BME280;63173;49.086;33.418;2023-01-26T19:11:06;101612.13;;;-3.13;95.38
74578;BME280;63173;49.086;33.418;2023-01-26T19:13:32;101615.41;;;-3.27;95.55
74578;BME280;63173;49.086;33.418;2023-01-26T19:15:58;101603.31;;;-3.22;95.93
74578;BME280;63173;49.086;33.418;2023-01-26T19:18:23;101613.94;;;-3.06;95.73
74578;BME280;63173;49.086;33.418;2023-01-26T19:20:59;101606.47;;;-3.18;95.67
74578;BME280;63173;49.086;33.418;2023-01-26T19:23:25;101601.13;;;-3.10;95.46
74578;BME280;63173;49.086;33.418;2023-01-26T19:25:51;101595.16;;;-2.96;95.96
74578;BME280;63173;49.086;33.418;2023-01-26T19:28:16;101602.28;;;-2.97;95.43
74578;BME280;63173;49.086;33.418;2023-01-26T19:30:42;101604.63;;;-3.02;95.56
74578;BME280;63173;49.086;33.418;2023-01-26T19:33:08;101598.81;;;-3.13;95.27
74578;BME280;63173;49.086;33.418;2023-01-26T19:35:50;101599.00;;;-3.15;95.88
74578;BME280;63173;49.086;33.418;2023-01-26T19:38:16;101598.66;;;-3.12;95.65
74578;BME280;63173;49.086;33.418;2023-01-26T19:40:48;101604.63;;;-3.18;95.98
74578;BME280;63173;49.086;33.418;2023-01-26T19:43:15;101608.31;;;-3.11;96.48
74578;BME280;63173;49.086;33.418;2023-01-26T19:45:40;101605.16;;;-3.14;95.45
74578;BME280;63173;49.086;33.418;2023-01-26T19:48:11;101606.44;;;-3.10;96.13
74578;BME280;63173;49.086;33.418;2023-01-26T19:50:36;101590.38;;;-3.09;95.73
74578;BME280;63173;49.086;33.418;2023-01-26T19:53:02;101591.50;;;-3.19;95.97
74578;BME280;63173;49.086;33.418;2023-01-26T19:55:27;101592.50;;;-3.28;95.23
74578;BME280;63173;49.086;33.418;2023-01-26T19:57:53;101595.81;;;-3.34;95.69
74578;BME280;63173;49.086;33.418;2023-01-26T20:00:18;101599.63;;;-3.37;96.29
74578;BME280;63173;49.086;33.418;2023-01-26T20:02:45;101590.50;;;-3.42;96.55
74578;BME280;63173;49.086;33.418;2023-01-26T20:05:11;101585.38;;;-3.36;96.52
74578;BME280;63173;49.086;33.418;2023-01-26T20:07:36;101582.06;;;-3.22;96.56
74578;BME280;63173;49.086;33.418;2023-01-26T20:10:03;101578.06;;;-3.18;96.42
74578;BME280;63173;49.086;33.418;2023-01-26T20:12:28;101574.41;;;-3.33;96.40
74578;BME280;63173;49.086;33.418;2023-01-26T20:14:54;101572.59;;;-3.24;96.16
74578;BME280;63173;49.086;33.418;2023-01-26T20:17:19;101578.75;;;-3.32;96.47
74578;BME280;63173;49.086;33.418;2023-01-26T20:19:45;101572.44;;;-3.07;96.32
74578;BME280;63173;49.086;33.418;2023-01-26T20:22:11;101568.75;;;-3.06;96.19
74578;BME280;63173;49.086;33.418;2023-01-26T20:24:37;101556.44;;;-2.91;96.04
74578;BME280;63173;49.086;33.418;2023-01-26T20:27:04;101558.78;;;-2.96;95.20
74578;BME280;63173;49.086;33.418;2023-01-26T20:29:29;101561.28;;;-3.02;95.94
74578;BME280;63173;49.086;33.418;2023-01-26T20:31:54;101556.63;;;-3.00;95.92
74578;BME280;63173;49.086;33.418;2023-01-26T20:34:20;101563.94;;;-3.02;95.70
74578;BME280;63173;49.086;33.418;2023-01-26T20:36:46;101548.28;;;-2.97;95.48
74578;BME280;63173;49.086;33.418;2023-01-26T20:39:13;101546.69;;;-3.14;95.62
74578;BME280;63173;49.086;33.418;2023-01-26T20:41:40;101548.16;;;-3.12;96.05
74578;BME280;63173;49.086;33.418;2023-01-26T20:44:06;101543.84;;;-3.13;96.18
74578;BME280;63173;49.086;33.418;2023-01-26T20:46:36;101544.53;;;-3.11;95.77
74578;BME280;63173;49.086;33.418;2023-01-26T20:49:02;101543.44;;;-2.69;96.43
74578;BME280;63173;49.086;33.418;2023-01-26T20:51:31;101544.66;;;-2.96;95.89
74578;BME280;63173;49.086;33.418;2023-01-26T20:53:58;101534.69;;;-2.94;95.44
74578;BME280;63173;49.086;33.418;2023-01-26T20:56:24;101536.50;;;-2.95;95.23
74578;BME280;63173;49.086;33.418;2023-01-26T20:58:51;101536.50;;;-2.95;95.70
74578;BME280;63173;49.086;33.418;2023-01-26T21:01:17;101530.81;;;-2.83;94.61
74578;BME280;63173;49.086;33.418;2023-01-26T21:03:43;101537.66;;;-2.81;95.40
74578;BME280;63173;49.086;33.418;2023-01-26T21:06:11;101536.31;;;-2.85;95.10
74578;BME280;63173;49.086;33.418;2023-01-26T21:08:37;101528.34;;;-2.77;94.44
74578;BME280;63173;49.086;33.418;2023-01-26T21:11:04;101531.00;;;-2.85;94.55
74578;BME280;63173;49.086;33.418;2023-01-26T21:13:33;101524.84;;;-2.86;94.84
74578;BME280;63173;49.086;33.418;2023-01-26T21:15:58;101525.47;;;-2.67;94.71
74578;BME280;63173;49.086;33.418;2023-01-26T21:18:24;101520.00;;;-2.74;94.45
74578;BME280;63173;49.086;33.418;2023-01-26T21:20:56;101512.88;;;-2.73;94.67
74578;BME280;63173;49.086;33.418;2023-01-26T21:23:22;101517.69;;;-2.77;94.66
74578;BME280;63173;49.086;33.418;2023-01-26T21:25:48;101518.34;;;-2.75;94.71
74578;BME280;63173;49.086;33.418;2023-01-26T21:28:13;101503.25;;;-2.74;94.23
74578;BME280;63173;49.086;33.418;2023-01-26T21:30:39;101497.09;;;-2.83;94.65
74578;BME280;63173;49.086;33.418;2023-01-26T21:33:04;101499.78;;;-2.91;94.56
74578;BME280;63173;49.086;33.418;2023-01-26T21:35:29;101491.78;;;-2.83;94.92
74578;BME280;63173;49.086;33.418;2023-01-26T21:37:55;101494.44;;;-2.75;94.42
74578;BME280;63173;49.086;33.418;2023-01-26T21:40:20;101488.66;;;-2.87;94.71
74578;BME280;63173;49.086;33.418;2023-01-26T21:42:46;101485.97;;;-2.87;94.46
74578;BME280;63173;49.086;33.418;2023-01-26T21:45:11;101494.75;;;-2.78;95.11
74578;BME280;63173;49.086;33.418;2023-01-26T21:47:55;101496.91;;;-2.73;93.96
74578;BME280;63173;49.086;33.418;2023-01-26T21:50:39;101478.50;;;-2.91;94.10
74578;BME280;63173;49.086;33.418;2023-01-26T21:53:44;101478.69;;;-3.01;94.31
74578;BME280;63173;49.086;33.418;2023-01-26T21:56:10;101478.03;;;-2.95;94.78
74578;BME280;63173;49.086;33.418;2023-01-26T21:58:37;101482.19;;;-2.92;94.64
74578;BME280;63173;49.086;33.418;2023-01-26T22:01:21;101481.03;;;-2.90;94.68
74578;BME280;63173;49.086;33.418;2023-01-26T22:03:47;101476.03;;;-2.93;94.32
74578;BME280;63173;49.086;33.418;2023-01-26T22:06:12;101484.16;;;-2.86;94.50
74578;BME280;63173;49.086;33.418;2023-01-26T22:08:38;101481.31;;;-2.76;94.50
74578;BME280;63173;49.086;33.418;2023-01-26T22:11:04;101478.31;;;-2.81;94.26
74578;BME280;63173;49.086;33.418;2023-01-26T22:13:29;101487.00;;;-2.96;94.48
74578;BME280;63173;49.086;33.418;2023-01-26T22:15:59;101484.81;;;-2.84;94.37
74578;BME280;63173;49.086;33.418;2023-01-26T22:18:24;101483.97;;;-2.76;93.94
74578;BME280;63173;49.086;33.418;2023-01-26T22:20:50;101474.97;;;-2.75;94.06
74578;BME280;63173;49.086;33.418;2023-01-26T22:23:15;101466.34;;;-2.86;94.09
74578;BME280;63173;49.086;33.418;2023-01-26T22:25:41;101477.34;;;-2.89;93.88
74578;BME280;63173;49.086;33.418;2023-01-26T22:28:06;101467.88;;;-2.91;94.62
74578;BME280;63173;49.086;33.418;2023-01-26T22:30:32;101462.06;;;-2.95;94.52
